sensor_id;sensor_type;location;lat;lon;timestamp;pressure;altitude;pressure_sealevel;temperature;humidity
72086;BME280;64750;52.134;5.424;2023-07-13T00:01:54;101489.63;;;19.40;63.03
72086;BME280;64750;52.134;5.424;2023-07-13T00:04:22;101485.41;;;19.38;63.44
72086;BME280;64750;52.134;5.424;2023-07-13T00:06:49;101487.25;;;19.37;63.28
72086;BME280;64750;52.134;5.424;2023-07-13T00:09:17;101485.69;;;19.34;63.21
72086;BME280;64750;52.134;5.424;2023-07-13T00:11:45;101487.34;;;19.35;63.43
72086;BME280;64750;52.134;5.424;2023-07-13T00:14:14;101493.69;;;19.34;63.53
72086;BME280;64750;52.134;5.424;2023-07-13T00:16:42;101492.69;;;19.35;63.40
72086;BME280;64750;52.134;5.424;2023-07-13T00:19:11;101490.31;;;19.32;63.70
72086;BME280;64750;52.134;5.424;2023-07-13T00:21:41;101492.13;;;19.32;63.48
72086;BME280;64750;52.134;5.424;2023-07-13T00:24:10;101491.41;;;19.30;63.74
72086;BME280;64750;52.134;5.424;2023-07-13T00:26:39;101490.97;;;19.25;63.69
72086;BME280;64750;52.134;5.424;2023-07-13T00:29:06;101491.34;;;19.20;63.47
72086;BME280;64750;52.134;5.424;2023-07-13T00:31:35;101496.81;;;19.18;63.31
72086;BME280;64750;52.134;5.424;2023-07-13T00:34:02;101496.81;;;19.18;63.32
72086;BME280;64750;52.134;5.424;2023-07-13T00:36:30;101495.28;;;19.16;63.22
72086;BME280;64750;52.134;5.424;2023-07-13T00:38:57;101486.44;;;19.15;63.10
72086;BME280;64750;52.134;5.424;2023-07-13T00:41:24;101488.38;;;19.13;63.37
72086;BME280;64750;52.134;5.424;2023-07-13T00:43:50;101489.25;;;19.14;63.15
72086;BME280;64750;52.134;5.424;2023-07-13T00:46:20;101487.56;;;19.13;62.99
72086;BME280;64750;52.134;5.424;2023-07-13T00:48:48;101489.63;;;19.09;63.44
72086;BME280;64750;52.134;5.424;2023-07-13T00:51:22;101491.47;;;19.09;63.17
72086;BME280;64750;52.134;5.424;2023-07-13T00:53:51;101495.34;;;19.05;63.10
72086;BME280;64750;52.134;5.424;2023-07-13T00:56:19;101488.47;;;19.02;63.31
72086;BME280;64750;52.134;5.424;2023-07-13T00:58:45;101490.28;;;19.01;63.04
72086;BME280;64750;52.134;5.424;2023-07-13T01:01:12;101493.25;;;18.98;63.37
72086;BME280;64750;52.134;5.424;2023-07-13T01:03:39;101487.47;;;18.93;63.26
72086;BME280;64750;52.134;5.424;2023-07-13T01:06:07;101490.56;;;18.98;63.62
72086;BME280;64750;52.134;5.424;2023-07-13T01:08:35;101479.34;;;18.95;63.48
72086;BME280;64750;52.134;5.424;2023-07-13T01:11:02;101484.81;;;18.93;63.75
72086;BME280;64750;52.134;5.424;2023-07-13T01:13:28;101487.56;;;18.92;63.81
72086;BME280;64750;52.134;5.424;2023-07-13T01:15:56;101497.38;;;18.91;63.74
72086;BME280;64750;52.134;5.424;2023-07-13T01:18:25;101495.81;;;18.89;63.66
72086;BME280;64750;52.134;5.424;2023-07-13T01:23:22;101501.03;;;18.90;64.02
72086;BME280;64750;52.134;5.424;2023-07-13T01:25:51;101499.28;;;18.89;64.24
72086;BME280;64750;52.134;5.424;2023-07-13T01:28:18;101506.69;;;18.85;64.07
72086;BME280;64750;52.134;5.424;2023-07-13T01:30:45;101503.06;;;18.86;64.22
72086;BME280;64750;52.134;5.424;2023-07-13T01:33:14;101500.41;;;18.86;64.42
72086;BME280;64750;52.134;5.424;2023-07-13T01:35:43;101504.16;;;18.84;64.50
72086;BME280;64750;52.134;5.424;2023-07-13T01:38:10;101495.50;;;18.82;64.54
72086;BME280;64750;52.134;5.424;2023-07-13T01:40:37;101498.00;;;18.83;64.53
72086;BME280;64750;52.134;5.424;2023-07-13T01:43:04;101503.59;;;18.80;64.56
72086;BME280;64750;52.134;5.424;2023-07-13T01:45:33;101501.06;;;18.79;64.37
72086;BME280;64750;52.134;5.424;2023-07-13T01:48:03;101499.38;;;18.78;64.59
72086;BME280;64750;52.134;5.424;2023-07-13T01:50:29;101496.84;;;18.76;64.71
72086;BME280;64750;52.134;5.424;2023-07-13T01:52:57;101500.72;;;18.72;64.85
72086;BME280;64750;52.134;5.424;2023-07-13T01:55:24;101509.09;;;18.67;65.00
72086;BME280;64750;52.134;5.424;2023-07-13T01:57:50;101510.09;;;18.66;65.10
72086;BME280;64750;52.134;5.424;2023-07-13T02:00:17;101515.66;;;18.63;64.92
72086;BME280;64750;52.134;5.424;2023-07-13T02:02:44;101513.97;;;18.62;64.88
72086;BME280;64750;52.134;5.424;2023-07-13T02:05:12;101509.38;;;18.64;65.23
72086;BME280;64750;52.134;5.424;2023-07-13T02:07:39;101509.50;;;18.63;65.34
72086;BME280;64750;52.134;5.424;2023-07-13T02:10:07;101509.88;;;18.58;64.94
72086;BME280;64750;52.134;5.424;2023-07-13T02:12:34;101515.22;;;18.58;65.03
72086;BME280;64750;52.134;5.424;2023-07-13T02:15:02;101516.06;;;18.59;65.29
72086;BME280;64750;52.134;5.424;2023-07-13T02:17:29;101524.16;;;18.57;65.49
72086;BME280;64750;52.134;5.424;2023-07-13T02:19:55;101519.09;;;18.54;65.42
72086;BME280;64750;52.134;5.424;2023-07-13T02:22:22;101515.00;;;18.50;65.54
72086;BME280;64750;52.134;5.424;2023-07-13T02:24:49;101519.38;;;18.51;65.37
72086;BME280;64750;52.134;5.424;2023-07-13T02:27:16;101515.97;;;18.49;65.28
72086;BME280;64750;52.134;5.424;2023-07-13T02:29:43;101521.53;;;18.46;65.87
72086;BME280;64750;52.134;5.424;2023-07-13T02:32:09;101519.88;;;18.45;66.05
72086;BME280;64750;52.134;5.424;2023-07-13T02:34:36;101520.97;;;18.42;65.95
72086;BME280;64750;52.134;5.424;2023-07-13T02:37:03;101523.63;;;18.42;65.83
72086;BME280;64750;52.134;5.424;2023-07-13T02:39:30;101524.72;;;18.40;66.19
72086;BME280;64750;52.134;5.424;2023-07-13T02:41:59;101530.88;;;18.40;65.84
72086;BME280;64750;52.134;5.424;2023-07-13T02:44:27;101527.41;;;18.40;65.93
72086;BME280;64750;52.134;5.424;2023-07-13T02:46:53;101525.94;;;18.35;66.34
72086;BME280;64750;52.134;5.424;2023-07-13T02:49:20;101524.50;;;18.31;66.14
72086;BME280;64750;52.134;5.424;2023-07-13T02:51:46;101525.00;;;18.25;66.47
72086;BME280;64750;52.134;5.424;2023-07-13T02:54:13;101518.84;;;18.25;66.87
72086;BME280;64750;52.134;5.424;2023-07-13T02:56:41;101516.44;;;18.22;66.68
72086;BME280;64750;52.134;5.424;2023-07-13T02:59:07;101521.19;;;18.18;66.97
72086;BME280;64750;52.134;5.424;2023-07-13T03:01:34;101517.56;;;18.19;67.23
72086;BME280;64750;52.134;5.424;2023-07-13T03:04:02;101525.78;;;18.16;67.13
72086;BME280;64750;52.134;5.424;2023-07-13T03:06:31;101521.53;;;18.13;67.13
72086;BME280;64750;52.134;5.424;2023-07-13T03:08:58;101526.16;;;18.11;67.59
72086;BME280;64750;52.134;5.424;2023-07-13T03:11:24;101535.25;;;18.09;67.67
72086;BME280;64750;52.134;5.424;2023-07-13T03:13:51;101533.41;;;18.09;67.82
72086;BME280;64750;52.134;5.424;2023-07-13T03:16:18;101538.00;;;18.07;67.97
72086;BME280;64750;52.134;5.424;2023-07-13T03:18:46;101531.84;;;18.07;67.96
72086;BME280;64750;52.134;5.424;2023-07-13T03:21:14;101527.47;;;18.06;68.22
72086;BME280;64750;52.134;5.424;2023-07-13T03:23:41;101526.75;;;18.03;68.16
72086;BME280;64750;52.134;5.424;2023-07-13T03:26:17;101535.13;;;17.99;68.44
72086;BME280;64750;52.134;5.424;2023-07-13T03:28:44;101533.44;;;17.98;68.46
72086;BME280;64750;52.134;5.424;2023-07-13T03:31:15;101537.91;;;17.97;68.66
72086;BME280;64750;52.134;5.424;2023-07-13T03:33:42;101541.75;;;17.93;68.78
72086;BME280;64750;52.134;5.424;2023-07-13T03:36:13;101548.03;;;17.92;68.72
72086;BME280;64750;52.134;5.424;2023-07-13T03:38:40;101552.41;;;17.93;68.83
72086;BME280;64750;52.134;5.424;2023-07-13T03:41:07;101553.59;;;17.89;69.13
72086;BME280;64750;52.134;5.424;2023-07-13T03:43:33;101555.41;;;17.88;69.11
72086;BME280;64750;52.134;5.424;2023-07-13T03:46:03;101563.53;;;17.87;69.38
72086;BME280;64750;52.134;5.424;2023-07-13T03:48:29;101560.38;;;17.82;69.54
72086;BME280;64750;52.134;5.424;2023-07-13T03:50:57;101558.44;;;17.84;69.54
72086;BME280;64750;52.134;5.424;2023-07-13T03:53:24;101563.75;;;17.84;69.85
72086;BME280;64750;52.134;5.424;2023-07-13T03:55:51;101565.31;;;17.86;69.85
72086;BME280;64750;52.134;5.424;2023-07-13T03:58:35;101571.59;;;17.85;69.75
72086;BME280;64750;52.134;5.424;2023-07-13T04:01:04;101576.81;;;17.87;69.76
72086;BME280;64750;52.134;5.424;2023-07-13T04:03:32;101576.91;;;17.85;70.07
72086;BME280;64750;52.134;5.424;2023-07-13T04:06:01;101572.59;;;17.84;70.15
72086;BME280;64750;52.134;5.424;2023-07-13T04:08:29;101572.34;;;17.87;70.19
72086;BME280;64750;52.134;5.424;2023-07-13T04:10:56;101583.94;;;17.86;69.95
72086;BME280;64750;52.134;5.424;2023-07-13T04:13:24;101584.06;;;17.85;70.14
72086;BME280;64750;52.134;5.424;2023-07-13T04:15:51;101583.09;;;17.86;70.12
72086;BME280;64750;52.134;5.424;2023-07-13T04:18:18;101588.41;;;17.86;70.11
72086;BME280;64750;52.134;5.424;2023-07-13T04:20:46;101584.06;;;17.85;70.33
72086;BME280;64750;52.134;5.424;2023-07-13T04:23:13;101585.03;;;17.84;70.19
72086;BME280;64750;52.134;5.424;2023-07-13T04:25:43;101585.03;;;17.84;70.45
72086;BME280;64750;52.134;5.424;2023-07-13T04:28:10;101592.53;;;17.79;70.23
72086;BME280;64750;52.134;5.424;2023-07-13T04:30:39;101597.13;;;17.77;70.39
72086;BME280;64750;52.134;5.424;2023-07-13T04:33:06;101597.13;;;17.77;70.60
72086;BME280;64750;52.134;5.424;2023-07-13T04:35:34;101599.78;;;17.77;70.75
72086;BME280;64750;52.134;5.424;2023-07-13T04:38:01;101598.09;;;17.76;70.88
72086;BME280;64750;52.134;5.424;2023-07-13T04:40:29;101596.13;;;17.78;70.67
72086;BME280;64750;52.134;5.424;2023-07-13T04:42:55;101597.13;;;17.77;70.80
72086;BME280;64750;52.134;5.424;2023-07-13T04:45:24;101598.09;;;17.76;70.94
72086;BME280;64750;52.134;5.424;2023-07-13T04:47:51;101595.56;;;17.74;71.24
72086;BME280;64750;52.134;5.424;2023-07-13T04:50:17;101592.78;;;17.76;71.23
72086;BME280;64750;52.134;5.424;2023-07-13T04:52:50;101598.78;;;17.78;71.41
72086;BME280;64750;52.134;5.424;2023-07-13T04:55:18;101604.84;;;17.80;71.48
72086;BME280;64750;52.134;5.424;2023-07-13T04:57:46;101603.91;;;17.81;71.65
72086;BME280;64750;52.134;5.424;2023-07-13T05:00:14;101595.91;;;17.81;71.50
72086;BME280;64750;52.134;5.424;2023-07-13T05:02:44;101597.63;;;17.82;71.80
72086;BME280;64750;52.134;5.424;2023-07-13T05:05:12;101595.91;;;17.81;72.10
72086;BME280;64750;52.134;5.424;2023-07-13T05:07:39;101600.75;;;17.76;72.42
72086;BME280;64750;52.134;5.424;2023-07-13T05:10:06;101608.25;;;17.82;72.50
72086;BME280;64750;52.134;5.424;2023-07-13T05:12:32;101613.56;;;17.82;72.67
72086;BME280;64750;52.134;5.424;2023-07-13T05:14:59;101608.00;;;17.85;72.75
72086;BME280;64750;52.134;5.424;2023-07-13T05:17:26;101600.63;;;17.88;72.67
72086;BME280;64750;52.134;5.424;2023-07-13T05:19:52;101615.84;;;17.86;72.85
72086;BME280;64750;52.134;5.424;2023-07-13T05:22:19;101608.97;;;17.84;73.22
72086;BME280;64750;52.134;5.424;2023-07-13T05:24:45;101615.00;;;17.86;73.20
72086;BME280;64750;52.134;5.424;2023-07-13T05:27:12;101618.63;;;17.85;73.24
72086;BME280;64750;52.134;5.424;2023-07-13T05:29:38;101620.34;;;17.86;73.48
72086;BME280;64750;52.134;5.424;2023-07-13T05:32:05;101617.69;;;17.86;73.72
72086;BME280;64750;52.134;5.424;2023-07-13T05:34:32;101622.25;;;17.84;73.92
72086;BME280;64750;52.134;5.424;2023-07-13T05:36:59;101622.25;;;17.84;74.02
72086;BME280;64750;52.134;5.424;2023-07-13T05:39:27;101626.88;;;17.82;74.14
72086;BME280;64750;52.134;5.424;2023-07-13T05:41:54;101631.44;;;17.80;74.30
72086;BME280;64750;52.134;5.424;2023-07-13T05:44:21;101634.72;;;17.83;74.24
72086;BME280;64750;52.134;5.424;2023-07-13T05:46:47;101634.59;;;17.85;74.36
72086;BME280;64750;52.134;5.424;2023-07-13T05:49:14;101641.34;;;17.89;74.02
72086;BME280;64750;52.134;5.424;2023-07-13T05:51:41;101641.34;;;17.89;74.34
72086;BME280;64750;52.134;5.424;2023-07-13T05:54:07;101635.81;;;17.92;74.30
72086;BME280;64750;52.134;5.424;2023-07-13T05:56:34;101634.75;;;17.95;74.25
72086;BME280;64750;52.134;5.424;2023-07-13T05:59:03;101647.91;;;17.96;74.23
72086;BME280;64750;52.134;5.424;2023-07-13T06:01:31;101647.91;;;17.96;74.38
72086;BME280;64750;52.134;5.424;2023-07-13T06:04:03;101651.16;;;17.88;74.53
72086;BME280;64750;52.134;5.424;2023-07-13T06:06:30;101652.50;;;17.94;74.66
72086;BME280;64750;52.134;5.424;2023-07-13T06:08:57;101657.09;;;17.92;74.79
72086;BME280;64750;52.134;5.424;2023-07-13T06:11:25;101663.38;;;17.91;74.77
72086;BME280;64750;52.134;5.424;2023-07-13T06:13:52;101669.41;;;17.93;75.45
72086;BME280;64750;52.134;5.424;2023-07-13T06:16:18;101673.03;;;17.92;75.24
72086;BME280;64750;52.134;5.424;2023-07-13T06:18:45;101668.69;;;17.91;75.43
72086;BME280;64750;52.134;5.424;2023-07-13T06:21:18;101668.56;;;17.93;75.61
72086;BME280;64750;52.134;5.424;2023-07-13T06:23:47;101673.44;;;17.99;75.42
72086;BME280;64750;52.134;5.424;2023-07-13T06:26:17;101672.97;;;18.05;75.11
72086;BME280;64750;52.134;5.424;2023-07-13T06:28:44;101678.88;;;18.09;75.01
72086;BME280;64750;52.134;5.424;2023-07-13T06:31:13;101679.09;;;18.06;75.46
72086;BME280;64750;52.134;5.424;2023-07-13T06:33:41;101682.72;;;18.04;75.69
72086;BME280;64750;52.134;5.424;2023-07-13T06:36:08;101683.47;;;18.07;75.34
72086;BME280;64750;52.134;5.424;2023-07-13T06:38:35;101685.03;;;18.09;75.72
72086;BME280;64750;52.134;5.424;2023-07-13T06:41:02;101684.91;;;18.11;75.56
72086;BME280;64750;52.134;5.424;2023-07-13T06:43:28;101684.91;;;18.11;75.84
72086;BME280;64750;52.134;5.424;2023-07-13T06:45:56;101682.88;;;18.14;75.56
72086;BME280;64750;52.134;5.424;2023-07-13T06:48:22;101680.94;;;18.16;75.37
72086;BME280;64750;52.134;5.424;2023-07-13T06:50:50;101682.50;;;18.19;75.63
72086;BME280;64750;52.134;5.424;2023-07-13T06:53:19;101680.69;;;18.19;75.73
72086;BME280;64750;52.134;5.424;2023-07-13T06:55:46;101681.28;;;18.23;75.82
72086;BME280;64750;52.134;5.424;2023-07-13T06:58:17;101683.81;;;18.25;75.21
72086;BME280;64750;52.134;5.424;2023-07-13T07:00:44;101690.59;;;18.29;75.37
72086;BME280;64750;52.134;5.424;2023-07-13T07:03:10;101691.19;;;18.32;75.39
72086;BME280;64750;52.134;5.424;2023-07-13T07:05:37;101700.50;;;18.38;75.46
72086;BME280;64750;52.134;5.424;2023-07-13T07:08:04;101700.00;;;18.44;74.90
72086;BME280;64750;52.134;5.424;2023-07-13T07:10:31;101698.91;;;18.47;74.56
72086;BME280;64750;52.134;5.424;2023-07-13T07:12:58;101708.72;;;18.46;75.07
72086;BME280;64750;52.134;5.424;2023-07-13T07:15:26;101705.19;;;18.46;74.97
72086;BME280;64750;52.134;5.424;2023-07-13T07:17:53;101706.81;;;18.48;75.37
72086;BME280;64750;52.134;5.424;2023-07-13T07:20:19;101706.41;;;18.53;75.13
72086;BME280;64750;52.134;5.424;2023-07-13T07:22:47;101699.63;;;18.60;75.29
72086;BME280;64750;52.134;5.424;2023-07-13T07:25:14;101718.97;;;18.62;75.33
72086;BME280;64750;52.134;5.424;2023-07-13T07:27:41;101715.34;;;18.63;75.43
72086;BME280;64750;52.134;5.424;2023-07-13T07:30:10;101717.53;;;18.58;75.97
72086;BME280;64750;52.134;5.424;2023-07-13T07:32:40;101725.41;;;18.60;75.90
72086;BME280;64750;52.134;5.424;2023-07-13T07:35:23;101713.91;;;18.59;76.86
72086;BME280;64750;52.134;5.424;2023-07-13T07:37:49;101728.19;;;18.58;78.09
72086;BME280;64750;52.134;5.424;2023-07-13T07:40:17;101721.16;;;18.57;78.83
72086;BME280;64750;52.134;5.424;2023-07-13T07:42:47;101708.72;;;18.58;78.66
72086;BME280;64750;52.134;5.424;2023-07-13T07:45:14;101714.03;;;18.58;78.66
72086;BME280;64750;52.134;5.424;2023-07-13T07:47:40;101714.16;;;18.56;78.84
72086;BME280;64750;52.134;5.424;2023-07-13T07:50:07;101704.97;;;18.60;79.43
72086;BME280;64750;52.134;5.424;2023-07-13T07:52:34;101701.22;;;18.63;79.91
72086;BME280;64750;52.134;5.424;2023-07-13T07:55:01;101706.41;;;18.64;79.41
72086;BME280;64750;52.134;5.424;2023-07-13T07:57:30;101702.78;;;18.65;79.05
72086;BME280;64750;52.134;5.424;2023-07-13T08:00:00;101690.41;;;18.64;78.89
72086;BME280;64750;52.134;5.424;2023-07-13T08:02:32;101688.50;;;18.66;79.32
72086;BME280;64750;52.134;5.424;2023-07-13T08:05:02;101702.50;;;18.68;78.93
72086;BME280;64750;52.134;5.424;2023-07-13T08:07:32;101701.69;;;18.68;78.58
72086;BME280;64750;52.134;5.424;2023-07-13T08:09:59;101706.38;;;18.76;79.27
72086;BME280;64750;52.134;5.424;2023-07-13T08:12:26;101710.22;;;18.83;79.20
72086;BME280;64750;52.134;5.424;2023-07-13T08:14:56;101714.22;;;18.89;78.37
72086;BME280;64750;52.134;5.424;2023-07-13T08:17:27;101714.22;;;18.89;78.17
72086;BME280;64750;52.134;5.424;2023-07-13T08:19:54;101706.13;;;18.90;78.71
72086;BME280;64750;52.134;5.424;2023-07-13T08:22:21;101706.72;;;18.94;77.63
72086;BME280;64750;52.134;5.424;2023-07-13T08:24:48;101703.69;;;18.98;78.56
72086;BME280;64750;52.134;5.424;2023-07-13T08:27:25;101703.69;;;18.98;77.81
72086;BME280;64750;52.134;5.424;2023-07-13T08:29:52;101716.53;;;18.93;76.64
72086;BME280;64750;52.134;5.424;2023-07-13T08:32:21;101706.59;;;18.95;77.85
72086;BME280;64750;52.134;5.424;2023-07-13T08:34:48;101706.47;;;18.97;77.10
72086;BME280;64750;52.134;5.424;2023-07-13T08:37:15;101697.00;;;19.04;76.48
72086;BME280;64750;52.134;5.424;2023-07-13T08:39:43;101692.59;;;19.14;76.77
72086;BME280;64750;52.134;5.424;2023-07-13T08:45:04;101705.00;;;19.25;74.48
72086;BME280;64750;52.134;5.424;2023-07-13T08:47:35;101696.56;;;19.20;73.00
72086;BME280;64750;52.134;5.424;2023-07-13T08:50:04;101712.44;;;19.22;73.19
72086;BME280;64750;52.134;5.424;2023-07-13T08:52:35;101717.03;;;19.20;72.80
72086;BME280;64750;52.134;5.424;2023-07-13T08:55:13;101727.19;;;19.26;73.49
72086;BME280;64750;52.134;5.424;2023-07-13T08:57:43;101721.41;;;19.21;70.08
72086;BME280;64750;52.134;5.424;2023-07-13T09:00:12;101731.63;;;19.04;68.57
72086;BME280;64750;52.134;5.424;2023-07-13T09:02:46;101731.03;;;18.89;67.89
72086;BME280;64750;52.134;5.424;2023-07-13T09:05:20;101732.53;;;18.82;69.15
72086;BME280;64750;52.134;5.424;2023-07-13T09:08:01;101743.19;;;18.71;70.15
72086;BME280;64750;52.134;5.424;2023-07-13T09:10:32;101732.75;;;18.67;70.16
72086;BME280;64750;52.134;5.424;2023-07-13T09:15:42;101731.66;;;18.81;72.38
72086;BME280;64750;52.134;5.424;2023-07-13T09:18:36;101728.16;;;18.81;72.76
72086;BME280;64750;52.134;5.424;2023-07-13T09:21:12;101735.41;;;18.79;72.86
72086;BME280;64750;52.134;5.424;2023-07-13T09:23:40;101724.75;;;18.79;74.68
72086;BME280;64750;52.134;5.424;2023-07-13T09:26:16;101731.78;;;18.80;75.06
72086;BME280;64750;52.134;5.424;2023-07-13T09:28:46;101736.84;;;18.83;74.88
72086;BME280;64750;52.134;5.424;2023-07-13T09:31:17;101731.28;;;18.86;75.66
72086;BME280;64750;52.134;5.424;2023-07-13T09:33:48;101734.31;;;18.93;76.18
72086;BME280;64750;52.134;5.424;2023-07-13T09:36:28;101738.53;;;19.07;76.37
72086;BME280;64750;52.134;5.424;2023-07-13T09:44:11;101724.41;;;19.27;74.58
72086;BME280;64750;52.134;5.424;2023-07-13T09:46:43;101729.00;;;19.25;71.46
72086;BME280;64750;52.134;5.424;2023-07-13T09:49:12;101733.16;;;19.18;70.98
72086;BME280;64750;52.134;5.424;2023-07-13T09:51:42;101746.66;;;19.05;71.09
72086;BME280;64750;52.134;5.424;2023-07-13T09:54:21;101760.13;;;18.92;73.04
72086;BME280;64750;52.134;5.424;2023-07-13T09:56:55;101779.97;;;18.77;74.58
72086;BME280;64750;52.134;5.424;2023-07-13T09:59:26;101789.81;;;18.53;77.02
72086;BME280;64750;52.134;5.424;2023-07-13T10:01:53;101778.53;;;18.39;77.11
72086;BME280;64750;52.134;5.424;2023-07-13T10:04:28;101778.28;;;18.30;76.98
72086;BME280;64750;52.134;5.424;2023-07-13T10:07:06;101783.13;;;18.25;77.11
72086;BME280;64750;52.134;5.424;2023-07-13T10:09:57;101782.16;;;18.26;77.34
72086;BME280;64750;52.134;5.424;2023-07-13T10:12:24;101775.53;;;18.32;79.43
72086;BME280;64750;52.134;5.424;2023-07-13T10:14:56;101773.56;;;18.45;79.08
72086;BME280;64750;52.134;5.424;2023-07-13T10:17:45;101778.28;;;18.53;78.99
72086;BME280;64750;52.134;5.424;2023-07-13T10:20:12;101784.56;;;18.63;80.43
72086;BME280;64750;52.134;5.424;2023-07-13T10:22:46;101779.50;;;18.72;81.02
72086;BME280;64750;52.134;5.424;2023-07-13T10:25:19;101787.72;;;18.80;79.91
72086;BME280;64750;52.134;5.424;2023-07-13T10:27:49;101781.31;;;18.71;78.92
72086;BME280;64750;52.134;5.424;2023-07-13T10:30:25;101783.34;;;18.79;80.51
72086;BME280;64750;52.134;5.424;2023-07-13T10:33:00;101782.59;;;18.88;79.12
72086;BME280;64750;52.134;5.424;2023-07-13T10:35:29;101772.69;;;19.01;80.39
72086;BME280;64750;52.134;5.424;2023-07-13T10:38:04;101779.94;;;19.11;79.42
72086;BME280;64750;52.134;5.424;2023-07-13T10:43:11;101777.75;;;19.05;79.12
72086;BME280;64750;52.134;5.424;2023-07-13T10:45:41;101790.75;;;18.98;77.62
72086;BME280;64750;52.134;5.424;2023-07-13T10:48:12;101777.69;;;18.95;78.28
72086;BME280;64750;52.134;5.424;2023-07-13T10:50:45;101792.41;;;18.88;78.12
72086;BME280;64750;52.134;5.424;2023-07-13T10:53:31;101790.84;;;18.85;78.72
72086;BME280;64750;52.134;5.424;2023-07-13T10:56:03;101786.50;;;19.07;79.74
72086;BME280;64750;52.134;5.424;2023-07-13T11:03:35;101783.88;;;19.60;76.75
72086;BME280;64750;52.134;5.424;2023-07-13T11:11:04;101802.53;;;19.81;73.88
72086;BME280;64750;52.134;5.424;2023-07-13T11:18:49;101803.19;;;20.06;71.03
72086;BME280;64750;52.134;5.424;2023-07-13T11:21:22;101795.81;;;20.20;71.78
72086;BME280;64750;52.134;5.424;2023-07-13T11:24:28;101799.50;;;20.28;70.70
72086;BME280;64750;52.134;5.424;2023-07-13T11:26:52;101791.88;;;20.24;68.86
72086;BME280;64750;52.134;5.424;2023-07-13T11:32:02;101790.75;;;20.16;70.25
72086;BME280;64750;52.134;5.424;2023-07-13T11:34:48;101793.78;;;20.12;70.46
72086;BME280;64750;52.134;5.424;2023-07-13T11:37:16;101794.00;;;19.99;69.59
72086;BME280;64750;52.134;5.424;2023-07-13T11:39:46;101800.63;;;19.83;70.51
72086;BME280;64750;52.134;5.424;2023-07-13T11:42:16;101801.47;;;19.51;72.31
72086;BME280;64750;52.134;5.424;2023-07-13T11:44:47;101815.75;;;19.29;76.14
72086;BME280;64750;52.134;5.424;2023-07-13T11:47:30;101830.66;;;19.21;76.46
72086;BME280;64750;52.134;5.424;2023-07-13T11:49:57;101830.94;;;19.06;77.08
72086;BME280;64750;52.134;5.424;2023-07-13T11:52:34;101822.56;;;18.99;76.75
72086;BME280;64750;52.134;5.424;2023-07-13T11:55:13;101826.47;;;18.95;77.06
72086;BME280;64750;52.134;5.424;2023-07-13T11:57:49;101826.25;;;18.98;76.26
72086;BME280;64750;52.134;5.424;2023-07-13T12:00:26;101825.63;;;18.95;76.32
72086;BME280;64750;52.134;5.424;2023-07-13T12:02:56;101825.16;;;18.90;77.42
72086;BME280;64750;52.134;5.424;2023-07-13T12:05:23;101833.97;;;18.90;78.08
72086;BME280;64750;52.134;5.424;2023-07-13T12:07:51;101825.59;;;18.83;77.68
72086;BME280;64750;52.134;5.424;2023-07-13T12:10:21;101829.72;;;18.88;78.96
72086;BME280;64750;52.134;5.424;2023-07-13T12:13:01;101819.19;;;18.86;78.69
72086;BME280;64750;52.134;5.424;2023-07-13T12:18:15;101828.44;;;18.93;79.36
72086;BME280;64750;52.134;5.424;2023-07-13T12:20:42;101827.19;;;18.97;80.28
72086;BME280;64750;52.134;5.424;2023-07-13T12:23:30;101830.09;;;18.94;78.74
72086;BME280;64750;52.134;5.424;2023-07-13T12:25:59;101821.41;;;18.92;79.30
72086;BME280;64750;52.134;5.424;2023-07-13T12:28:38;101825.63;;;18.95;79.09
72086;BME280;64750;52.134;5.424;2023-07-13T12:31:25;101831.03;;;19.05;79.45
72086;BME280;64750;52.134;5.424;2023-07-13T12:34:06;101830.22;;;19.04;79.29
72086;BME280;64750;52.134;5.424;2023-07-13T12:36:35;101828.16;;;19.08;78.98
72086;BME280;64750;52.134;5.424;2023-07-13T12:39:25;101826.66;;;19.15;78.80
72086;BME280;64750;52.134;5.424;2023-07-13T12:41:54;101821.28;;;19.38;80.16
72086;BME280;64750;52.134;5.424;2023-07-13T12:44:40;101813.44;;;19.57;79.39
72086;BME280;64750;52.134;5.424;2023-07-13T12:47:13;101822.13;;;19.71;79.79
72086;BME280;64750;52.134;5.424;2023-07-13T12:49:43;101812.16;;;19.73;77.53
72086;BME280;64750;52.134;5.424;2023-07-13T12:52:37;101822.50;;;19.66;76.51
72086;BME280;64750;52.134;5.424;2023-07-13T12:55:14;101817.81;;;19.58;76.56
72086;BME280;64750;52.134;5.424;2023-07-13T13:02:49;101817.50;;;19.73;70.79
72086;BME280;64750;52.134;5.424;2023-07-13T13:05:17;101817.41;;;19.74;72.06
72086;BME280;64750;52.134;5.424;2023-07-13T13:07:44;101819.34;;;19.72;73.64
72086;BME280;64750;52.134;5.424;2023-07-13T13:10:13;101812.94;;;19.63;71.43
72086;BME280;64750;52.134;5.424;2023-07-13T13:12:41;101824.34;;;19.65;72.29
72086;BME280;64750;52.134;5.424;2023-07-13T13:15:10;101821.63;;;19.77;72.36
72086;BME280;64750;52.134;5.424;2023-07-13T13:17:38;101821.47;;;19.90;71.25
72086;BME280;64750;52.134;5.424;2023-07-13T13:20:14;101819.19;;;19.85;71.53
72086;BME280;64750;52.134;5.424;2023-07-13T13:22:42;101823.28;;;19.89;71.83
72086;BME280;64750;52.134;5.424;2023-07-13T13:25:13;101826.28;;;19.96;71.09
72086;BME280;64750;52.134;5.424;2023-07-13T13:27:41;101821.94;;;19.95;69.69
72086;BME280;64750;52.134;5.424;2023-07-13T13:30:12;101828.09;;;19.95;70.85
72086;BME280;64750;52.134;5.424;2023-07-13T13:32:40;101833.44;;;19.95;68.53
72086;BME280;64750;52.134;5.424;2023-07-13T13:35:13;101827.31;;;20.05;67.38
72086;BME280;64750;52.134;5.424;2023-07-13T13:37:40;101834.75;;;20.01;66.36
72086;BME280;64750;52.134;5.424;2023-07-13T13:40:20;101829.59;;;19.88;66.77
72086;BME280;64750;52.134;5.424;2023-07-13T13:42:47;101824.78;;;19.82;66.51
72086;BME280;64750;52.134;5.424;2023-07-13T13:45:14;101828.88;;;19.86;67.48